Time;durP1;ratioP1;P1;durP2;ratioP2;P2;SDS_P1;SDS_P2;PMS_P1;PMS_P2;Temp;Humidity;BMP_temperature;BMP_pressure;BME280_temperature;BME280_humidity;BME280_pressure;Samples;Min_cycle;Max_cycle;Signal;HPM_P1;HPM_P2
2023/07/25 00:00:31;;;;;;;7.97;1.73;;;16.70;99.90;;;;;;5072041;28;20036;-68
2023/07/25 00:02:57;;;;;;;4.97;1.50;;;16.70;99.90;;;;;;5071699;28;20021;-67
2023/07/25 00:05:23;;;;;;;2.92;1.25;;;16.60;99.90;;;;;;5072538;28;20028;-67
2023/07/25 00:07:48;;;;;;;3.85;1.48;;;16.60;99.90;;;;;;5071961;28;20082;-68
2023/07/25 00:10:15;;;;;;;5.53;1.52;;;16.70;99.90;;;;;;5071069;28;20083;-68
2023/07/25 00:12:41;;;;;;;2.67;1.45;;;16.70;99.90;;;;;;5070468;28;20044;-68
2023/07/25 00:15:07;;;;;;;2.45;1.48;;;16.70;99.90;;;;;;5071527;28;20028;-68
2023/07/25 00:17:32;;;;;;;6.05;1.90;;;16.60;99.90;;;;;;5071897;28;20036;-68
2023/07/25 00:19:58;;;;;;;6.90;1.77;;;16.50;99.90;;;;;;5071564;28;20082;-68
2023/07/25 00:22:24;;;;;;;8.40;2.00;;;16.60;99.90;;;;;;5071407;28;20101;-67
2023/07/25 00:24:49;;;;;;;12.10;1.77;;;16.60;99.90;;;;;;5071395;28;20094;-67
2023/07/25 00:27:15;;;;;;;7.15;1.95;;;16.50;99.90;;;;;;5071397;28;20103;-68
2023/07/25 00:29:41;;;;;;;8.00;2.20;;;16.50;99.90;;;;;;5070944;28;20128;-68
2023/07/25 00:32:07;;;;;;;7.55;2.28;;;16.60;99.90;;;;;;5071000;28;20051;-68
2023/07/25 00:34:33;;;;;;;11.07;2.42;;;16.50;99.90;;;;;;5071044;28;20028;-69
2023/07/25 00:36:58;;;;;;;5.07;1.83;;;16.50;99.90;;;;;;5071163;28;20044;-68
2023/07/25 00:39:24;;;;;;;5.93;2.17;;;16.50;99.90;;;;;;5071175;28;20508;-68
2023/07/25 00:41:49;;;;;;;5.55;1.77;;;16.40;99.90;;;;;;5070931;28;20060;-68
2023/07/25 00:44:15;;;;;;;7.15;2.25;;;16.40;99.90;;;;;;5070546;28;20029;-67
2023/07/25 00:46:42;;;;;;;9.10;1.90;;;16.40;99.90;;;;;;5071316;28;20056;-67
2023/07/25 00:49:08;;;;;;;14.57;2.78;;;16.30;99.90;;;;;;5069501;28;20035;-68
2023/07/25 00:51:34;;;;;;;13.43;2.83;;;16.30;99.90;;;;;;5070604;28;20036;-67
2023/07/25 00:54:00;;;;;;;10.13;2.60;;;16.30;99.90;;;;;;5070758;28;20103;-67
2023/07/25 00:56:26;;;;;;;13.50;2.30;;;16.20;99.90;;;;;;5071274;28;20112;-68
2023/07/25 00:58:52;;;;;;;6.72;1.88;;;16.20;99.90;;;;;;5070717;28;20488;-68
2023/07/25 01:01:18;;;;;;;8.93;2.22;;;16.30;99.90;;;;;;5070623;28;20024;-67
2023/07/25 01:03:44;;;;;;;7.82;2.05;;;16.30;99.90;;;;;;5069506;28;20351;-68
2023/07/25 01:06:12;;;;;;;9.88;2.35;;;16.30;99.90;;;;;;5070608;28;20043;-68
2023/07/25 01:08:52;;;;;;;8.65;2.45;;;16.10;99.90;;;;;;5070998;28;20062;-68
2023/07/25 01:11:19;;;;;;;8.27;2.50;;;16.20;99.90;;;;;;5070694;28;20043;-68
2023/07/25 01:13:45;;;;;;;12.60;2.53;;;16.20;99.90;;;;;;5070669;28;20028;-67
2023/07/25 01:16:14;;;;;;;7.75;2.20;;;16.20;99.90;;;;;;5070595;28;20024;-68
2023/07/25 01:18:41;;;;;;;12.40;2.35;;;16.20;99.90;;;;;;5070271;28;20029;-68
2023/07/25 01:21:07;;;;;;;5.88;2.17;;;16.20;99.90;;;;;;5070211;28;20031;-67
2023/07/25 01:23:35;;;;;;;7.43;1.92;;;16.30;99.90;;;;;;5070825;28;20055;-68
2023/07/25 01:26:01;;;;;;;10.05;3.45;;;16.20;99.90;;;;;;5070351;28;20037;-68
2023/07/25 01:28:27;;;;;;;11.73;2.63;;;16.20;99.90;;;;;;5069178;28;20055;-69
2023/07/25 01:30:52;;;;;;;9.57;1.70;;;16.20;99.90;;;;;;5070307;28;20032;-68
2023/07/25 01:33:18;;;;;;;11.48;2.33;;;16.10;99.90;;;;;;5069957;28;20502;-68
2023/07/25 01:35:43;;;;;;;3.72;1.55;;;16.10;99.90;;;;;;5078126;28;20028;-68
2023/07/25 01:38:09;;;;;;;9.90;2.58;;;16.10;99.90;;;;;;5090233;28;20458;-69
2023/07/25 01:40:39;;;;;;;11.60;2.58;;;16.10;99.90;;;;;;5089160;28;20132;-68
2023/07/25 01:43:05;;;;;;;12.25;2.25;;;16.20;99.90;;;;;;5090219;28;20024;-69
2023/07/25 01:45:31;;;;;;;11.60;2.88;;;16.20;99.90;;;;;;5090226;28;20036;-68
2023/07/25 01:47:57;;;;;;;7.85;2.00;;;16.30;99.90;;;;;;5090108;28;20032;-69
2023/07/25 01:50:22;;;;;;;14.10;2.10;;;16.20;99.90;;;;;;5091023;28;20020;-69
2023/07/25 01:52:48;;;;;;;10.68;2.20;;;16.20;99.90;;;;;;5090289;28;20358;-67
2023/07/25 01:55:14;;;;;;;11.05;2.30;;;16.20;99.90;;;;;;5090352;28;20024;-68
2023/07/25 01:57:39;;;;;;;10.07;2.10;;;16.10;99.90;;;;;;5090302;28;20024;-68
2023/07/25 02:00:07;;;;;;;15.07;2.17;;;16.10;99.90;;;;;;5089189;28;20032;-68
2023/07/25 02:02:33;;;;;;;8.77;2.45;;;16.10;99.90;;;;;;5090984;28;20077;-68
2023/07/25 02:04:59;;;;;;;14.38;3.38;;;16.20;99.90;;;;;;5089203;28;20040;-68
2023/07/25 02:07:24;;;;;;;12.20;2.58;;;16.10;99.90;;;;;;5090206;28;20539;-68
2023/07/25 02:09:50;;;;;;;13.10;2.58;;;16.20;99.90;;;;;;5090164;28;20043;-67
2023/07/25 02:12:15;;;;;;;12.10;3.13;;;16.10;99.90;;;;;;5090186;28;20078;-68
2023/07/25 02:14:41;;;;;;;15.40;2.88;;;16.10;99.90;;;;;;5090934;28;20437;-68
2023/07/25 02:17:06;;;;;;;12.50;2.33;;;16.20;99.90;;;;;;5090164;28;20032;-68
2023/07/25 02:19:32;;;;;;;17.13;3.03;;;16.10;99.90;;;;;;5090265;28;20028;-69
2023/07/25 02:21:58;;;;;;;17.90;2.63;;;16.10;99.90;;;;;;5089937;28;20032;-68
2023/07/25 02:24:24;;;;;;;5.88;2.22;;;16.00;99.90;;;;;;5089941;28;20020;-68
2023/07/25 02:26:49;;;;;;;8.02;2.42;;;16.10;99.90;;;;;;5090531;28;20411;-67
2023/07/25 02:29:15;;;;;;;9.38;2.47;;;16.10;99.90;;;;;;5089874;28;20047;-68
2023/07/25 02:31:40;;;;;;;19.40;3.75;;;16.10;99.90;;;;;;5089830;28;20066;-68
2023/07/25 02:34:06;;;;;;;13.25;2.28;;;16.10;99.90;;;;;;5091326;28;20044;-68
2023/07/25 02:36:32;;;;;;;12.05;2.63;;;16.10;99.90;;;;;;5093410;28;20036;-68
2023/07/25 02:38:57;;;;;;;17.27;2.65;;;16.10;99.90;;;;;;5092857;28;20063;-69
2023/07/25 02:41:23;;;;;;;12.15;1.98;;;16.20;99.90;;;;;;5094110;28;20032;-69
2023/07/25 02:43:49;;;;;;;8.70;2.38;;;16.10;99.90;;;;;;5093379;28;20032;-68
2023/07/25 02:46:14;;;;;;;6.43;2.38;;;16.20;99.90;;;;;;5093245;28;20028;-69
2023/07/25 02:48:40;;;;;;;11.32;2.80;;;16.20;99.90;;;;;;5093466;28;20038;-68
2023/07/25 02:51:05;;;;;;;8.23;2.42;;;16.20;99.90;;;;;;5093526;28;20504;-68
2023/07/25 02:53:31;;;;;;;7.32;2.92;;;16.20;99.90;;;;;;5093742;28;20024;-68
2023/07/25 02:55:57;;;;;;;13.93;2.45;;;16.10;99.90;;;;;;5093448;28;20039;-68
2023/07/25 02:58:23;;;;;;;9.73;2.88;;;16.20;99.90;;;;;;5093163;28;20077;-68
2023/07/25 03:00:49;;;;;;;11.07;2.97;;;16.20;99.90;;;;;;5093043;28;20036;-68
2023/07/25 03:03:15;;;;;;;8.98;2.35;;;16.20;99.90;;;;;;5092951;28;20039;-68
2023/07/25 03:05:41;;;;;;;9.70;2.90;;;16.40;99.90;;;;;;5093398;28;20024;-68
2023/07/25 03:08:06;;;;;;;10.00;3.30;;;16.30;99.90;;;;;;5091907;28;20189;-68
2023/07/25 03:10:32;;;;;;;9.82;2.63;;;16.30;99.90;;;;;;5092943;28;20024;-68
2023/07/25 03:12:58;;;;;;;15.98;2.40;;;16.40;99.90;;;;;;5092963;28;20025;-70
2023/07/25 03:15:24;;;;;;;7.20;2.50;;;16.30;99.90;;;;;;5092795;28;20445;-68
2023/07/25 03:17:50;;;;;;;8.40;1.98;;;16.30;99.90;;;;;;5091766;28;20055;-68
2023/07/25 03:20:15;;;;;;;16.55;3.15;;;16.30;99.90;;;;;;5093128;28;20135;-69
2023/07/25 03:22:41;;;;;;;16.77;2.75;;;16.40;99.90;;;;;;5092639;28;20028;-69
2023/07/25 03:25:07;;;;;;;11.55;2.30;;;16.50;99.90;;;;;;5091483;28;20052;-69
2023/07/25 03:27:33;;;;;;;10.10;2.85;;;16.40;99.90;;;;;;5092558;28;20062;-68
2023/07/25 03:29:59;;;;;;;9.77;2.88;;;16.40;99.90;;;;;;5092433;28;20057;-70
2023/07/25 03:32:24;;;;;;;8.75;2.78;;;16.30;99.90;;;;;;5092673;28;20131;-68
2023/07/25 03:34:50;;;;;;;14.27;2.70;;;16.30;99.90;;;;;;5092198;28;20028;-68
2023/07/25 03:37:16;;;;;;;10.50;2.50;;;16.30;99.90;;;;;;5091909;28;20047;-68
2023/07/25 03:39:41;;;;;;;8.05;2.88;;;16.30;99.90;;;;;;5092264;28;20043;-67
2023/07/25 03:42:07;;;;;;;7.03;2.42;;;16.30;99.90;;;;;;5092610;28;20124;-68
2023/07/25 03:44:32;;;;;;;14.43;3.00;;;16.30;99.90;;;;;;5091552;28;20173;-68
2023/07/25 03:46:58;;;;;;;10.20;2.45;;;16.30;99.90;;;;;;5091344;28;20506;-68
2023/07/25 03:49:24;;;;;;;6.70;2.63;;;16.40;99.90;;;;;;5092083;28;20028;-68
2023/07/25 03:51:49;;;;;;;10.20;3.00;;;16.40;99.90;;;;;;5091936;28;20020;-68
2023/07/25 03:54:15;;;;;;;9.88;2.72;;;16.40;99.90;;;;;;5091026;28;20094;-68
2023/07/25 03:56:40;;;;;;;14.05;3.17;;;16.30;99.90;;;;;;5092450;28;20158;-68
2023/07/25 03:59:06;;;;;;;12.20;2.50;;;16.30;99.90;;;;;;5092032;28;20044;-68
2023/07/25 04:01:32;;;;;;;18.40;3.63;;;16.20;99.90;;;;;;5092120;28;20055;-68
2023/07/25 04:03:57;;;;;;;14.05;4.57;;;16.20;99.90;;;;;;5091676;28;20458;-68
2023/07/25 04:06:23;;;;;;;12.35;2.60;;;16.20;99.90;;;;;;5091599;28;20119;-68
2023/07/25 04:08:48;;;;;;;9.25;2.40;;;16.20;99.90;;;;;;5092061;28;20354;-68
2023/07/25 04:11:14;;;;;;;13.82;2.60;;;16.10;99.90;;;;;;5091660;28;20538;-67
2023/07/25 04:13:40;;;;;;;13.20;3.25;;;16.10;99.90;;;;;;5091727;28;20089;-68
2023/07/25 04:16:06;;;;;;;11.40;3.05;;;16.00;99.90;;;;;;5091481;28;20574;-68
2023/07/25 04:18:32;;;;;;;7.32;2.80;;;16.10;99.90;;;;;;5091648;28;20025;-68
2023/07/25 04:20:57;;;;;;;9.05;3.03;;;16.10;99.90;;;;;;5091571;28;20024;-68
2023/07/25 04:23:23;;;;;;;15.57;3.03;;;16.20;99.90;;;;;;5092071;28;20020;-68
2023/07/25 04:25:49;;;;;;;15.40;3.13;;;16.10;99.90;;;;;;5091414;28;20466;-69
2023/07/25 04:28:15;;;;;;;14.45;2.75;;;16.00;99.90;;;;;;5091496;28;20029;-68
2023/07/25 04:30:41;;;;;;;13.07;2.90;;;16.00;99.90;;;;;;5091284;28;20068;-68
2023/07/25 04:33:06;;;;;;;12.32;2.67;;;16.00;99.90;;;;;;5090855;28;20040;-67
2023/07/25 04:35:32;;;;;;;10.00;2.85;;;16.10;99.90;;;;;;5091708;28;20024;-68
2023/07/25 04:37:58;;;;;;;11.35;2.70;;;16.10;99.90;;;;;;5091014;28;20061;-67
2023/07/25 04:40:25;;;;;;;13.57;3.30;;;16.10;99.90;;;;;;5091236;28;20032;-69
2023/07/25 04:42:50;;;;;;;11.65;3.10;;;16.10;99.90;;;;;;5091217;28;20336;-69
2023/07/25 04:45:16;;;;;;;11.13;3.30;;;16.00;99.90;;;;;;5090960;28;20063;-69
2023/07/25 04:47:42;;;;;;;16.08;3.08;;;16.00;99.90;;;;;;5091582;28;20024;-68
2023/07/25 04:50:08;;;;;;;15.57;3.00;;;16.10;99.90;;;;;;5090955;28;20028;-68
2023/07/25 04:52:34;;;;;;;13.35;3.25;;;16.00;99.90;;;;;;5090980;28;20490;-68
2023/07/25 04:54:59;;;;;;;13.60;3.03;;;15.90;99.90;;;;;;5090803;28;20036;-67
2023/07/25 04:57:26;;;;;;;10.75;3.33;;;16.00;99.90;;;;;;5090549;28;20031;-68
2023/07/25 04:59:52;;;;;;;14.93;3.05;;;16.00;99.90;;;;;;5090652;28;20123;-68
2023/07/25 05:02:20;;;;;;;14.20;2.97;;;15.90;99.90;;;;;;5091321;28;20020;-69
2023/07/25 05:04:45;;;;;;;13.00;2.75;;;15.90;99.90;;;;;;5090816;28;20033;-68
2023/07/25 05:07:12;;;;;;;21.17;3.10;;;15.90;99.90;;;;;;5090673;28;20032;-68
2023/07/25 05:09:38;;;;;;;7.35;3.00;;;15.90;99.90;;;;;;5090666;28;20351;-69
2023/07/25 05:12:04;;;;;;;12.02;4.30;;;15.90;99.90;;;;;;5090737;28;20031;-69
2023/07/25 05:14:30;;;;;;;7.40;2.97;;;15.90;99.90;;;;;;5090131;28;20031;-68
2023/07/25 05:16:56;;;;;;;11.82;3.30;;;15.90;99.90;;;;;;5090593;28;20039;-67
2023/07/25 05:19:21;;;;;;;13.90;2.88;;;16.00;99.90;;;;;;5090686;28;20035;-67
2023/07/25 05:21:47;;;;;;;12.82;3.25;;;16.10;99.90;;;;;;5090513;28;20086;-68
2023/07/25 05:24:14;;;;;;;10.77;3.03;;;16.10;99.90;;;;;;5089195;28;20347;-68
2023/07/25 05:26:40;;;;;;;11.60;2.50;;;16.10;99.90;;;;;;5090901;28;20025;-68
2023/07/25 05:29:06;;;;;;;15.10;3.50;;;16.10;99.90;;;;;;5089267;28;20074;-68
2023/07/25 05:31:32;;;;;;;12.00;3.10;;;16.20;99.90;;;;;;5088938;28;20478;-69
2023/07/25 05:33:57;;;;;;;10.95;2.97;;;16.10;99.90;;;;;;5090361;28;20059;-66
2023/07/25 05:36:23;;;;;;;17.17;3.17;;;16.20;99.90;;;;;;5090509;28;20109;-67
2023/07/25 05:38:49;;;;;;;11.52;3.47;;;16.20;99.90;;;;;;5090638;28;20564;-68
2023/07/25 05:41:14;;;;;;;9.23;2.85;;;16.20;99.90;;;;;;5090601;28;20025;-68
2023/07/25 05:43:40;;;;;;;11.43;2.97;;;16.20;99.90;;;;;;5090137;28;20071;-68
2023/07/25 05:46:07;;;;;;;8.80;3.05;;;16.20;99.90;;;;;;5090148;28;20032;-68
2023/07/25 05:48:33;;;;;;;9.53;3.00;;;16.30;99.90;;;;;;5090143;28;20132;-68
2023/07/25 05:50:58;;;;;;;12.25;3.65;;;16.20;99.90;;;;;;5090192;28;20421;-67
2023/07/25 05:53:24;;;;;;;17.42;3.35;;;16.20;99.90;;;;;;5090685;28;20027;-67
2023/07/25 05:55:50;;;;;;;9.68;3.22;;;16.20;99.90;;;;;;5090014;28;20111;-67
2023/07/25 05:58:17;;;;;;;14.15;3.70;;;16.20;99.90;;;;;;5090074;28;20067;-68
2023/07/25 06:00:44;;;;;;;14.48;3.20;;;16.20;99.90;;;;;;5090051;28;20054;-68
2023/07/25 06:03:12;;;;;;;10.07;2.83;;;16.20;99.90;;;;;;5089163;28;20403;-67
2023/07/25 06:05:38;;;;;;;;;;;16.20;99.90;;;;;;5090861;28;20020;-68
2023/07/25 06:08:04;;;;;;;11.68;3.08;;;16.10;99.90;;;;;;5090287;28;19923;-67
2023/07/25 06:10:30;;;;;;;11.52;3.03;;;16.20;99.90;;;;;;5093575;28;20127;-67
2023/07/25 06:12:55;;;;;;;15.00;2.90;;;16.30;99.90;;;;;;5093872;28;20119;-68
2023/07/25 06:15:21;;;;;;;12.32;3.47;;;16.30;99.90;;;;;;5094144;28;20474;-68
2023/07/25 06:17:47;;;;;;;11.57;3.22;;;16.30;99.90;;;;;;5094177;28;20078;-68
2023/07/25 06:20:13;;;;;;;15.57;2.97;;;16.40;99.90;;;;;;5093749;28;20374;-68
2023/07/25 06:22:38;;;;;;;17.67;3.22;;;16.40;99.90;;;;;;5094195;28;20035;-68
2023/07/25 06:25:07;;;;;;;10.35;2.70;;;16.40;99.90;;;;;;5093646;28;20108;-68
2023/07/25 06:27:33;;;;;;;13.55;2.95;;;16.50;99.90;;;;;;5093625;28;20039;-68
2023/07/25 06:29:58;;;;;;;11.70;3.40;;;16.70;99.90;;;;;;5093489;28;20023;-68
2023/07/25 06:32:24;;;;;;;9.32;2.88;;;16.70;99.90;;;;;;5093679;28;20048;-68
2023/07/25 06:34:50;;;;;;;14.32;3.17;;;16.80;99.90;;;;;;5093107;28;20032;-68
2023/07/25 06:37:16;;;;;;;13.25;3.47;;;16.90;99.90;;;;;;5093220;28;20047;-68
2023/07/25 06:39:42;;;;;;;11.77;3.15;;;17.00;99.90;;;;;;5093336;28;20050;-68
2023/07/25 06:42:08;;;;;;;6.70;2.50;;;17.00;99.90;;;;;;5093397;28;20153;-70
2023/07/25 06:44:33;;;;;;;15.57;2.92;;;17.20;99.90;;;;;;5092695;28;20246;-69
2023/07/25 06:46:59;;;;;;;10.88;2.83;;;17.10;99.90;;;;;;5093304;28;20353;-68
2023/07/25 06:49:25;;;;;;;8.98;2.88;;;17.20;99.90;;;;;;5093338;28;20035;-69
2023/07/25 06:51:50;;;;;;;9.10;3.00;;;17.30;99.90;;;;;;5093125;28;20113;-69
2023/07/25 06:54:16;;;;;;;9.18;2.55;;;17.40;99.90;;;;;;5093013;28;20029;-70
2023/07/25 06:56:42;;;;;;;12.65;2.28;;;17.40;99.90;;;;;;5092157;28;20061;-68
2023/07/25 06:59:07;;;;;;;10.85;2.85;;;17.50;99.90;;;;;;5092838;28;20031;-69
2023/07/25 07:01:33;;;;;;;10.43;2.40;;;17.50;99.90;;;;;;5091817;28;20036;-69
2023/07/25 07:03:59;;;;;;;9.32;2.30;;;17.50;99.90;;;;;;5092554;28;20031;-68
2023/07/25 07:06:25;;;;;;;13.55;3.47;;;17.50;99.90;;;;;;5092794;28;20048;-69
2023/07/25 07:08:51;;;;;;;9.73;2.33;;;17.50;99.90;;;;;;5092685;28;20063;-69
2023/07/25 07:11:17;;;;;;;9.30;2.60;;;17.50;99.90;;;;;;5092995;28;20039;-68
2023/07/25 07:13:43;;;;;;;8.77;2.58;;;17.50;99.90;;;;;;5092497;28;20032;-69
2023/07/25 07:16:09;;;;;;;11.15;2.20;;;17.60;99.90;;;;;;5092589;28;20416;-69
2023/07/25 07:18:35;;;;;;;9.52;2.33;;;17.60;99.90;;;;;;5092797;28;20135;-68
2023/07/25 07:21:01;;;;;;;12.35;2.60;;;17.50;99.90;;;;;;5092479;28;20048;-68
2023/07/25 07:23:26;;;;;;;11.95;2.78;;;17.40;99.90;;;;;;5092724;28;20035;-68
2023/07/25 07:25:52;;;;;;;10.60;2.45;;;17.50;99.90;;;;;;5092616;28;20028;-69
2023/07/25 07:28:18;;;;;;;15.15;2.63;;;17.60;99.90;;;;;;5092257;28;20031;-68
2023/07/25 07:30:51;;;;;;;20.75;2.28;;;17.70;99.90;;;;;;5092453;28;20052;-68
2023/07/25 07:33:18;;;;;;;10.98;2.13;;;17.70;99.90;;;;;;5092054;28;20404;-69
2023/07/25 07:35:44;;;;;;;17.35;4.63;;;17.70;99.90;;;;;;5091469;28;20031;-69
2023/07/25 07:38:10;;;;;;;12.10;2.85;;;17.80;99.90;;;;;;5092382;28;20024;-68
2023/07/25 07:40:36;;;;;;;12.77;2.72;;;17.80;99.90;;;;;;5091045;28;20028;-68
2023/07/25 07:43:02;;;;;;;7.10;2.30;;;17.90;99.90;;;;;;5092010;28;20029;-68
2023/07/25 07:45:29;;;;;;;8.85;2.10;;;18.00;99.90;;;;;;5092059;28;20043;-68
2023/07/25 07:47:55;;;;;;;8.95;1.83;;;18.00;99.10;;;;;;5091829;28;20058;-69
2023/07/25 07:50:21;;;;;;;15.15;2.00;;;18.00;98.90;;;;;;5092522;28;20064;-69
2023/07/25 07:52:47;;;;;;;4.97;1.55;;;18.00;98.90;;;;;;5092152;28;20096;-69
2023/07/25 07:55:13;;;;;;;9.70;2.13;;;18.10;98.50;;;;;;5091634;28;20432;-67
2023/07/25 07:57:43;;;;;;;5.40;1.52;;;18.20;98.00;;;;;;5091748;28;20069;-68
2023/07/25 08:00:11;;;;;;;7.25;1.50;;;18.20;97.50;;;;;;5091597;28;20024;-68
2023/07/25 08:02:37;;;;;;;10.05;1.67;;;18.30;97.50;;;;;;5091987;28;20028;-69
2023/07/25 08:05:03;;;;;;;5.40;1.73;;;18.40;97.60;;;;;;5091337;28;20061;-69
2023/07/25 08:07:29;;;;;;;6.72;1.77;;;18.60;97.70;;;;;;5091641;28;20032;-69
2023/07/25 08:09:55;;;;;;;4.78;1.27;;;18.70;96.70;;;;;;5091497;28;20028;-69
2023/07/25 08:12:22;;;;;;;7.07;1.42;;;18.70;95.90;;;;;;5091523;28;20113;-69
2023/07/25 08:14:48;;;;;;;6.85;1.75;;;18.70;96.30;;;;;;5090823;28;20346;-70
2023/07/25 08:17:15;;;;;;;5.88;1.80;;;19.00;97.00;;;;;;5091309;28;20126;-68
2023/07/25 08:19:41;;;;;;;10.02;2.10;;;19.30;96.00;;;;;;5091322;28;20111;-68
2023/07/25 08:22:09;;;;;;;5.18;1.30;;;19.60;96.20;;;;;;5091263;28;20361;-69
2023/07/25 08:24:34;;;;;;;8.88;3.35;;;19.60;95.50;;;;;;5091314;28;20032;-69
2023/07/25 08:27:00;;;;;;;7.55;1.73;;;20.10;95.50;;;;;;5091153;28;20428;-68
2023/07/25 08:29:26;;;;;;;10.25;1.35;;;20.30;94.50;;;;;;5091559;28;20369;-68
2023/07/25 08:31:52;;;;;;;5.32;1.58;;;20.60;94.90;;;;;;5090529;28;20059;-68
2023/07/25 08:34:20;;;;;;;6.88;1.70;;;20.50;94.30;;;;;;5091080;28;20024;-67
2023/07/25 08:36:46;;;;;;;10.35;1.75;;;20.30;94.20;;;;;;5089847;28;20079;-67
2023/07/25 08:39:11;;;;;;;6.97;1.67;;;20.30;95.10;;;;;;5091020;28;20469;-67
2023/07/25 08:41:43;;;;;;;8.90;1.90;;;20.60;93.90;;;;;;5091512;28;20373;-67
2023/07/25 08:44:12;;;;;;;5.63;1.83;;;20.40;93.00;;;;;;5090941;28;20032;-68
2023/07/25 08:46:44;;;;;;;3.92;1.20;;;20.60;93.10;;;;;;5090915;28;20339;-67
2023/07/25 08:49:15;;;;;;;6.72;2.05;;;21.50;94.90;;;;;;5090978;28;20374;-67
2023/07/25 08:51:43;;;;;;;6.00;1.00;;;22.50;93.00;;;;;;5089692;28;20028;-67
2023/07/25 08:54:24;;;;;;;6.88;1.50;;;23.10;90.00;;;;;;5090922;28;20028;-67
2023/07/25 08:56:50;;;;;;;8.05;1.35;;;23.80;88.50;;;;;;5091072;28;20030;-68
2023/07/25 08:59:18;;;;;;;6.25;1.30;;;24.80;88.40;;;;;;5091005;28;20403;-68
2023/07/25 09:01:44;;;;;;;9.05;1.33;;;25.80;82.40;;;;;;5090670;28;20126;-68
2023/07/25 09:04:11;;;;;;;7.00;1.90;;;26.30;80.30;;;;;;5090523;28;20492;-68
2023/07/25 09:06:37;;;;;;;5.30;1.30;;;26.70;82.30;;;;;;5090497;28;20032;-69
2023/07/25 09:09:04;;;;;;;5.60;1.45;;;27.90;77.20;;;;;;5090657;28;20735;-70
2023/07/25 09:11:32;;;;;;;10.13;1.73;;;27.80;74.70;;;;;;5090000;28;20407;-68
2023/07/25 09:13:58;;;;;;;3.95;1.55;;;27.40;73.10;;;;;;5090420;28;20123;-68
2023/07/25 09:16:23;;;;;;;5.07;1.70;;;25.40;72.80;;;;;;5090319;28;20127;-68
2023/07/25 09:18:49;;;;;;;5.72;1.30;;;25.50;76.70;;;;;;5090266;28;20066;-68
2023/07/25 09:21:15;;;;;;;3.40;1.45;;;26.30;75.40;;;;;;5090361;28;20020;-68
2023/07/25 09:23:53;;;;;;;6.40;1.45;;;27.20;75.50;;;;;;5091201;28;20020;-68
2023/07/25 09:26:22;;;;;;;;;;;27.90;72.90;;;;;;5091184;28;20044;-69
2023/07/25 09:28:53;;;;;;;5.22;1.10;;;27.70;70.40;;;;;;5090213;28;19908;-69
2023/07/25 09:31:20;;;;;;;2.30;1.10;;;27.40;71.60;;;;;;5090215;28;20509;-69
2023/07/25 09:33:54;;;;;;;2.83;1.10;;;27.70;69.30;;;;;;5088749;28;20048;-68
2023/07/25 09:36:19;;;;;;;6.78;1.25;;;27.50;68.80;;;;;;5088971;28;20089;-70
2023/07/25 09:38:58;;;;;;;4.55;1.15;;;27.80;68.30;;;;;;5090858;28;20016;-69
2023/07/25 09:41:25;;;;;;;3.63;0.95;;;27.90;66.80;;;;;;5090462;28;20409;-68
2023/07/25 09:43:51;;;;;;;9.13;1.50;;;27.30;68.80;;;;;;5091192;28;20107;-68
2023/07/25 09:46:17;;;;;;;1.70;0.88;;;26.60;67.30;;;;;;5094250;28;20024;-68
2023/07/25 09:48:50;;;;;;;1.85;1.10;;;26.10;69.80;;;;;;5093158;28;20036;-69
2023/07/25 09:51:16;;;;;;;4.88;1.17;;;26.10;71.10;;;;;;5094183;28;20028;-69
2023/07/25 09:53:43;;;;;;;5.47;1.45;;;25.70;70.00;;;;;;5094536;28;20047;-68
2023/07/25 09:56:10;;;;;;;2.88;0.95;;;25.10;72.40;;;;;;5094430;28;20036;-68
2023/07/25 09:58:36;;;;;;;6.57;1.10;;;24.90;71.80;;;;;;5094312;28;20039;-68
2023/07/25 10:01:05;;;;;;;3.67;1.45;;;24.40;71.80;;;;;;5093918;28;20454;-69
2023/07/25 10:03:30;;;;;;;5.60;1.35;;;23.60;73.50;;;;;;5093947;28;20489;-68
2023/07/25 10:05:59;;;;;;;5.70;1.35;;;24.00;75.40;;;;;;5094132;28;20055;-68
2023/07/25 10:08:29;;;;;;;3.22;0.85;;;23.90;74.20;;;;;;5094351;28;20020;-68
2023/07/25 10:10:56;;;;;;;5.28;2.05;;;23.50;75.30;;;;;;5093928;28;20024;-68
2023/07/25 10:13:23;;;;;;;6.33;1.33;;;23.90;76.20;;;;;;5092684;28;20138;-68
2023/07/25 10:15:51;;;;;;;3.25;1.55;;;23.70;76.00;;;;;;5093682;28;20115;-67
2023/07/25 10:18:20;;;;;;;4.15;1.70;;;23.20;76.10;;;;;;5092471;28;20043;-68
2023/07/25 10:20:48;;;;;;;5.35;1.17;;;23.10;74.90;;;;;;5092926;28;20388;-68
2023/07/25 10:23:14;;;;;;;2.45;0.95;;;23.30;75.60;;;;;;5093630;28;20111;-68
2023/07/25 10:25:41;;;;;;;6.03;0.90;;;23.50;74.60;;;;;;5093432;28;20442;-68
2023/07/25 10:28:07;;;;;;;6.38;0.82;;;23.80;74.40;;;;;;5093686;28;20513;-69
2023/07/25 10:30:41;;;;;;;5.28;1.05;;;24.00;73.20;;;;;;5093419;28;20038;-69
2023/07/25 10:33:08;;;;;;;3.03;1.27;;;24.00;73.20;;;;;;5092244;28;20090;-68
2023/07/25 10:35:54;;;;;;;4.38;1.10;;;23.70;72.70;;;;;;5094010;28;20028;-68
2023/07/25 10:38:34;;;;;;;3.75;1.15;;;23.70;72.30;;;;;;5093458;28;20039;-68
2023/07/25 10:41:09;;;;;;;5.30;1.27;;;23.80;72.90;;;;;;5093345;28;20500;-69
2023/07/25 10:43:55;;;;;;;3.08;1.10;;;23.80;73.70;;;;;;5093166;28;20466;-68
2023/07/25 10:46:22;;;;;;;4.78;0.77;;;23.60;74.10;;;;;;5093279;28;20032;-68
2023/07/25 10:48:58;;;;;;;7.72;1.20;;;23.50;74.70;;;;;;5093164;28;20043;-68
2023/07/25 10:51:50;;;;;;;6.70;1.15;;;23.20;74.90;;;;;;5093144;28;20118;-68
2023/07/25 10:54:17;;;;;;;5.20;1.25;;;23.00;73.90;;;;;;5092555;28;20180;-68
2023/07/25 10:57:08;;;;;;;4.03;1.80;;;22.60;72.40;;;;;;5093725;28;20085;-68
2023/07/25 11:00:01;;;;;;;4.18;1.20;;;22.70;72.50;;;;;;5092836;28;20048;-69
2023/07/25 11:02:41;;;;;;;3.20;0.85;;;22.50;71.80;;;;;;5092923;28;20354;-68
2023/07/25 11:05:13;;;;;;;4.93;1.27;;;22.50;72.00;;;;;;5093105;28;20054;-68
2023/07/25 11:07:51;;;;;;;4.50;1.00;;;22.50;72.00;;;;;;5092958;28;20432;-68
2023/07/25 11:10:22;;;;;;;4.15;1.33;;;22.60;73.20;;;;;;5092731;28;20551;-67
2023/07/25 11:12:54;;;;;;;4.70;1.20;;;22.60;73.80;;;;;;5092530;28;20085;-68
2023/07/25 11:15:19;;;;;;;5.03;1.20;;;22.60;74.20;;;;;;5092531;28;20426;-68
2023/07/25 11:17:47;;;;;;;4.32;0.95;;;22.40;75.10;;;;;;5092796;28;20055;-68
2023/07/25 11:20:24;;;;;;;2.77;1.40;;;22.40;75.60;;;;;;5092530;28;20170;-68
2023/07/25 11:22:51;;;;;;;3.58;1.25;;;21.90;78.00;;;;;;5092500;28;20035;-68
2023/07/25 11:25:18;;;;;;;5.43;2.00;;;21.30;81.90;;;;;;5092251;28;20399;-68
2023/07/25 11:27:45;;;;;;;2.92;1.17;;;21.30;83.40;;;;;;5091309;28;20077;-68
2023/07/25 11:30:18;;;;;;;7.00;1.60;;;21.40;84.30;;;;;;5092273;28;20454;-67
2023/07/25 11:32:52;;;;;;;7.32;2.72;;;21.40;85.00;;;;;;5091394;28;20067;-68
2023/07/25 11:35:19;;;;;;;7.63;3.50;;;21.40;85.30;;;;;;5091380;28;20399;-69
2023/07/25 11:37:46;;;;;;;2.72;1.42;;;21.50;85.50;;;;;;5092110;28;20118;-68
2023/07/25 11:40:20;;;;;;;5.32;1.58;;;21.40;85.60;;;;;;5092199;28;20054;-67
2023/07/25 11:42:48;;;;;;;7.07;1.90;;;21.30;85.70;;;;;;5092382;28;20107;-67
2023/07/25 11:45:15;;;;;;;6.93;1.33;;;21.30;86.20;;;;;;5091926;28;20028;-67
2023/07/25 11:47:48;;;;;;;4.53;1.35;;;21.20;86.90;;;;;;5092514;28;20036;-66
2023/07/25 11:50:15;;;;;;;5.57;1.38;;;21.10;87.70;;;;;;5092069;28;20040;-68
2023/07/25 11:52:44;;;;;;;8.10;1.88;;;21.00;88.20;;;;;;5092016;28;20028;-68
2023/07/25 11:55:12;;;;;;;9.82;2.33;;;21.10;88.90;;;;;;5091943;28;20365;-68
2023/07/25 11:57:42;;;;;;;5.72;1.63;;;21.00;89.10;;;;;;5091775;28;20051;-69
2023/07/25 12:00:11;;;;;;;4.07;1.40;;;21.00;89.30;;;;;;5090771;28;20031;-68
2023/07/25 12:02:41;;;;;;;8.55;1.40;;;20.80;89.10;;;;;;5091231;28;20032;-67
2023/07/25 12:05:08;;;;;;;12.48;1.90;;;20.90;88.70;;;;;;5090774;28;20032;-67
2023/07/25 12:07:51;;;;;;;4.13;1.40;;;20.80;87.60;;;;;;5089829;28;20024;-68
2023/07/25 12:10:27;;;;;;;10.13;1.40;;;20.40;87.80;;;;;;5091542;28;20032;-67
2023/07/25 12:12:55;;;;;;;6.68;1.52;;;20.50;88.30;;;;;;5091656;28;20120;-68
2023/07/25 12:15:42;;;;;;;5.55;1.67;;;20.70;87.80;;;;;;5091405;28;20353;-67
2023/07/25 12:18:34;;;;;;;;;;;20.70;87.50;;;;;;5084366;28;20036;-69
2023/07/25 12:21:02;;;;;;;9.93;4.00;;;20.70;87.80;;;;;;5089134;28;19911;-68
2023/07/25 12:23:33;;;;;;;5.40;1.40;;;20.60;86.70;;;;;;5091753;28;20099;-69
2023/07/25 12:26:01;;;;;;;9.90;2.13;;;20.50;86.60;;;;;;5090293;28;20425;-69
2023/07/25 12:28:39;;;;;;;21.77;11.95;;;20.70;86.70;;;;;;5090015;28;20402;-67
2023/07/25 12:31:04;;;;;;;7.38;3.00;;;20.90;86.10;;;;;;5091329;28;20558;-68
2023/07/25 12:33:30;;;;;;;8.20;1.77;;;20.90;86.00;;;;;;5091022;28;20536;-67
2023/07/25 12:35:57;;;;;;;4.28;1.15;;;21.10;85.80;;;;;;5091016;28;20046;-67
2023/07/25 12:38:24;;;;;;;8.98;1.42;;;21.20;85.60;;;;;;5091593;28;20020;-67
2023/07/25 12:40:49;;;;;;;4.57;1.40;;;21.20;85.40;;;;;;5091043;28;20025;-68
2023/07/25 12:43:15;;;;;;;5.20;1.10;;;21.30;83.60;;;;;;5090905;28;20024;-68